Teyateyaneng, Lesotho
Current Conditions -  °F | °C
As of 11:00 PM on Tuesday 21 Oct 2014 (Local Time) from FABL Reporting Station
NA  
Wind Chill: 68°   Ceiling: NA
Heat Index: 68°   Visibility: NA
Dew Point: 28°   Wind: 5mph
Humidity: 23%   Direction: 110°ESE
Pressure: 30.18"   Gusts: NA
Location:  29.15°S, 27.74°E
Report Text: FABL 212100Z AUTO 11004KT //// // ////// 20/M02 Q1022
Loading
Personal Weather Stations






























Interactive Weather Map New forecast layout! Learn more

10-Day Weather Forecast

Advertisements
Track Severe Weather on mobile